createdAt,value
2022-08-28T00:00:28.981Z,18.80
2022-08-28T00:02:56.818Z,19.45
2022-08-28T00:05:26.194Z,20.38
2022-08-28T00:07:52.987Z,21.95
2022-08-28T00:10:22.328Z,23.38
2022-08-28T00:12:51.332Z,21.67
2022-08-28T00:15:22.067Z,19.35
2022-08-28T00:17:49.139Z,19.83
2022-08-28T00:20:19.941Z,21.77
2022-08-28T00:22:48.567Z,23.13
2022-08-28T00:25:18.363Z,22.08
2022-08-28T00:27:55.164Z,16.63
2022-08-28T00:30:24.218Z,19.40
2022-08-28T00:32:53.393Z,21.63
2022-08-28T00:35:21.044Z,19.45
2022-08-28T00:37:48.173Z,19.05
2022-08-28T00:40:20.007Z,19.13
2022-08-28T00:42:56.790Z,19.13
2022-08-28T00:45:24.969Z,22.15
2022-08-28T00:47:51.787Z,23.73
2022-08-28T00:50:22.014Z,18.88
2022-08-28T00:52:53.023Z,19.95
2022-08-28T00:55:23.582Z,20.83
2022-08-28T00:57:53.901Z,20.25
2022-08-28T01:00:25.824Z,19.42
2022-08-28T01:02:53.291Z,21.90
2022-08-28T01:05:20.768Z,22.58
2022-08-28T01:07:49.732Z,18.70
2022-08-28T01:10:20.243Z,20.50
2022-08-28T01:12:49.981Z,21.70
2022-08-28T01:15:21.368Z,18.88
2022-08-28T01:17:52.482Z,15.93
2022-08-28T01:20:27.209Z,17.35
2022-08-28T01:23:13.934Z,19.15
2022-08-28T01:25:42.733Z,18.65
2022-08-28T01:28:12.772Z,18.05
2022-08-28T01:30:42.399Z,16.70
2022-08-28T01:33:09.346Z,18.23
2022-08-28T01:35:42.806Z,17.20
2022-08-28T01:38:09.684Z,19.67
2022-08-28T01:40:42.936Z,20.52
2022-08-28T01:43:14.758Z,19.30
2022-08-28T01:45:44.463Z,18.73
2022-08-28T01:48:13.261Z,20.13
2022-08-28T01:50:40.817Z,20.30
2022-08-28T01:53:08.074Z,17.77
2022-08-28T01:55:39.780Z,13.68
2022-08-28T01:58:08.677Z,16.45
2022-08-28T02:00:36.477Z,15.27
2022-08-28T02:03:03.865Z,21.88
2022-08-28T02:05:32.694Z,17.55
2022-08-28T02:08:01.281Z,16.65
2022-08-28T02:10:31.624Z,20.60
2022-08-28T02:12:59.467Z,18.25
2022-08-28T02:15:28.914Z,19.13
2022-08-28T02:17:56.127Z,20.77
2022-08-28T02:20:24.214Z,18.92
2022-08-28T02:22:51.878Z,21.27
2022-08-28T02:25:19.286Z,18.15
2022-08-28T02:27:46.226Z,22.30
2022-08-28T02:30:15.209Z,20.95
2022-08-28T02:32:42.048Z,17.73
2022-08-28T02:35:12.955Z,18.95
2022-08-28T02:37:40.162Z,17.25
2022-08-28T02:40:07.799Z,21.38
2022-08-28T02:42:34.780Z,17.90
2022-08-28T02:45:01.692Z,18.25
2022-08-28T02:47:29.075Z,18.75
2022-08-28T02:49:55.899Z,17.75
2022-08-28T02:52:24.591Z,20.60
2022-08-28T02:54:51.548Z,20.00
2022-08-28T02:57:18.304Z,24.27
2022-08-28T02:59:45.576Z,20.98
2022-08-28T03:02:12.667Z,22.15
2022-08-28T03:04:41.447Z,23.25
2022-08-28T03:07:10.042Z,17.73
2022-08-28T03:09:38.311Z,18.42
2022-08-28T03:12:05.317Z,19.13
2022-08-28T03:14:32.130Z,19.17
2022-08-28T03:16:59.014Z,17.02
2022-08-28T03:19:25.903Z,18.98
2022-08-28T03:21:54.517Z,15.00
2022-08-28T03:24:21.393Z,17.25
2022-08-28T03:26:48.294Z,18.42
2022-08-28T03:29:15.025Z,18.48
2022-08-28T03:31:41.919Z,18.73
2022-08-28T03:34:09.605Z,21.58
2022-08-28T03:36:36.414Z,17.02
2022-08-28T03:39:05.990Z,15.27
2022-08-28T03:41:34.112Z,19.70
2022-08-28T03:44:01.800Z,19.02
2022-08-28T03:46:32.773Z,17.85
2022-08-28T03:49:01.425Z,18.17
2022-08-28T03:51:31.131Z,18.08
2022-08-28T03:53:59.591Z,17.27
2022-08-28T03:56:29.109Z,24.38
2022-08-28T03:58:59.060Z,24.33
2022-08-28T04:01:25.999Z,21.23
2022-08-28T04:03:52.949Z,22.10
2022-08-28T04:06:20.018Z,23.17
2022-08-28T04:08:47.998Z,17.50
2022-08-28T04:11:15.258Z,19.35
2022-08-28T04:13:42.210Z,14.90
2022-08-28T04:16:11.853Z,16.05
2022-08-28T04:18:41.682Z,23.65
2022-08-28T04:21:15.452Z,19.98
2022-08-28T04:23:44.047Z,22.98
2022-08-28T04:26:14.764Z,19.88
2022-08-28T04:28:42.181Z,27.15
2022-08-28T04:31:09.099Z,23.10
2022-08-28T04:33:37.055Z,23.13
2022-08-28T04:36:06.672Z,26.33
2022-08-28T04:38:33.675Z,34.45
2022-08-28T04:41:04.815Z,27.05
2022-08-28T04:43:31.798Z,35.03
2022-08-28T04:45:58.772Z,60.88
2022-08-28T04:48:25.989Z,42.25
2022-08-28T04:50:52.772Z,48.03
2022-08-28T04:53:20.257Z,35.00
2022-08-28T04:55:54.999Z,30.05
2022-08-28T04:58:24.139Z,32.05
2022-08-28T05:00:53.884Z,22.50
2022-08-28T05:03:21.201Z,27.90
2022-08-28T05:05:53.576Z,25.60
2022-08-28T05:08:23.380Z,19.75
2022-08-28T05:10:50.995Z,22.30
2022-08-28T05:13:19.249Z,19.80
2022-08-28T05:15:48.968Z,24.20
2022-08-28T05:18:18.487Z,23.38
2022-08-28T05:20:48.275Z,24.38
2022-08-28T05:23:16.662Z,20.85
2022-08-28T05:25:46.829Z,21.73
2022-08-28T05:28:22.455Z,19.95
2022-08-28T05:30:49.311Z,28.10
2022-08-28T05:33:16.216Z,25.20
2022-08-28T05:35:45.236Z,19.23
2022-08-28T05:38:13.569Z,23.45
2022-08-28T05:40:49.486Z,17.30
2022-08-28T05:43:18.095Z,18.35
2022-08-28T05:45:45.005Z,19.23
2022-08-28T05:48:12.116Z,28.00
2022-08-28T05:50:39.422Z,19.85
2022-08-28T05:53:14.156Z,20.48
2022-08-28T05:55:41.085Z,17.95
2022-08-28T05:58:26.476Z,20.15
2022-08-28T06:00:53.297Z,19.05
2022-08-28T06:03:20.094Z,21.23
2022-08-28T06:05:46.894Z,21.83
2022-08-28T06:08:13.854Z,22.17
2022-08-28T06:10:46.897Z,18.42
2022-08-28T06:13:17.736Z,18.58
2022-08-28T06:15:47.417Z,21.05
2022-08-28T06:18:15.982Z,15.88
2022-08-28T06:20:45.439Z,17.98
2022-08-28T06:23:16.450Z,16.08
2022-08-28T06:25:51.820Z,21.95
2022-08-28T06:28:21.800Z,20.33
2022-08-28T06:31:18.008Z,24.40
2022-08-28T06:33:37.816Z,14.98
2022-08-28T06:36:05.460Z,21.08
2022-08-28T06:38:32.241Z,17.80
2022-08-28T06:41:00.078Z,16.13
2022-08-28T06:43:28.953Z,22.50
2022-08-28T06:45:57.602Z,21.42
2022-08-28T06:48:27.474Z,23.00
2022-08-28T06:50:56.014Z,19.00
2022-08-28T06:53:26.468Z,21.48
2022-08-28T06:56:26.414Z,18.45
2022-08-28T06:58:56.906Z,20.45
2022-08-28T07:01:29.668Z,23.08
2022-08-28T07:04:04.033Z,24.25
2022-08-28T07:06:36.886Z,18.17
2022-08-28T07:09:06.164Z,27.40
2022-08-28T07:11:35.332Z,20.30
2022-08-28T07:14:03.057Z,24.13
2022-08-28T07:16:32.608Z,19.40
2022-08-28T07:19:00.167Z,21.50
2022-08-28T07:21:27.068Z,18.60
2022-08-28T07:23:55.091Z,20.33
2022-08-28T07:26:24.101Z,19.23
2022-08-28T07:28:53.340Z,22.58
2022-08-28T07:31:42.009Z,16.33
2022-08-28T07:34:10.284Z,16.48
2022-08-28T07:36:37.954Z,16.60
2022-08-28T07:39:06.317Z,18.63
2022-08-28T07:41:35.624Z,22.98
2022-08-28T07:44:21.291Z,12.10
2022-08-28T07:46:48.099Z,18.35
2022-08-28T07:49:18.457Z,12.05
2022-08-28T07:51:45.748Z,13.43
2022-08-28T07:54:17.736Z,13.32
2022-08-28T07:56:45.594Z,10.32
2022-08-28T07:59:16.875Z,10.40
2022-08-28T08:01:46.670Z,9.10
2022-08-28T08:04:16.332Z,6.95
2022-08-28T08:06:44.421Z,6.90
2022-08-28T08:09:14.853Z,9.05
2022-08-28T08:11:42.488Z,8.67
2022-08-28T08:14:10.161Z,8.15
2022-08-28T08:16:40.201Z,8.35
2022-08-28T08:19:10.189Z,6.43
2022-08-28T08:21:37.748Z,9.30
2022-08-28T08:24:04.913Z,7.50
2022-08-28T08:26:32.584Z,7.38
2022-08-28T08:28:59.677Z,4.78
2022-08-28T08:31:29.834Z,8.30
2022-08-28T08:34:02.071Z,8.25
2022-08-28T08:36:30.366Z,8.93
2022-08-28T08:39:00.395Z,9.35
2022-08-28T08:42:00.983Z,5.43
2022-08-28T08:44:36.895Z,7.68
2022-08-28T08:47:09.560Z,6.32
2022-08-28T08:49:43.411Z,4.95
2022-08-28T08:52:42.688Z,8.40
2022-08-28T08:55:32.061Z,6.43
2022-08-28T08:58:11.392Z,10.88
2022-08-28T09:00:53.793Z,5.03
2022-08-28T09:03:24.935Z,10.93
2022-08-28T09:06:00.405Z,4.72
2022-08-28T09:08:55.299Z,7.40
2022-08-28T09:11:36.742Z,7.40
2022-08-28T09:14:20.647Z,7.70
2022-08-28T09:16:55.913Z,5.90
2022-08-28T09:19:23.002Z,5.60
2022-08-28T09:21:51.422Z,9.50
2022-08-28T09:24:28.375Z,6.38
2022-08-28T09:26:59.681Z,5.72
2022-08-28T09:29:54.334Z,8.60
2022-08-28T09:32:38.704Z,7.70
2022-08-28T09:35:06.416Z,9.35
2022-08-28T09:37:35.648Z,11.15
2022-08-28T09:40:23.476Z,9.02
2022-08-28T09:43:16.813Z,5.90
2022-08-28T09:45:44.062Z,8.90
2022-08-28T09:48:32.635Z,6.78
2022-08-28T09:51:04.951Z,4.90
2022-08-28T09:53:54.027Z,10.38
2022-08-28T09:56:37.080Z,7.50
2022-08-28T09:59:14.274Z,6.80
2022-08-28T10:01:41.066Z,7.25
2022-08-28T10:04:18.097Z,7.95
2022-08-28T10:07:00.884Z,8.18
2022-08-28T10:09:47.757Z,8.80
2022-08-28T10:12:18.084Z,12.32
2022-08-28T10:14:57.196Z,11.07
2022-08-28T10:17:51.857Z,14.18
2022-08-28T10:20:31.820Z,10.38
2022-08-28T10:23:17.525Z,11.33
2022-08-28T10:25:52.147Z,11.82
2022-08-28T10:28:39.352Z,11.65
2022-08-28T10:31:31.504Z,7.82
2022-08-28T10:34:13.886Z,9.25
2022-08-28T10:36:43.054Z,9.20
2022-08-28T10:39:37.338Z,8.90
2022-08-28T10:42:06.411Z,6.63
2022-08-28T10:44:44.048Z,9.30
2022-08-28T10:47:13.653Z,8.95
2022-08-28T10:49:44.646Z,8.00
2022-08-28T10:55:09.941Z,7.82
2022-08-28T10:57:45.126Z,5.47
2022-08-28T11:00:18.708Z,8.48
2022-08-28T11:02:57.610Z,7.10
2022-08-28T11:05:40.791Z,7.93
2022-08-28T11:08:20.234Z,4.93
2022-08-28T11:10:53.034Z,8.40
2022-08-28T11:13:45.079Z,9.82
2022-08-28T11:16:38.068Z,8.73
2022-08-28T11:19:25.879Z,9.85
2022-08-28T11:22:02.824Z,5.55
2022-08-28T11:24:43.645Z,8.27
2022-08-28T11:27:29.491Z,11.15
2022-08-28T11:30:11.558Z,10.95
2022-08-28T11:32:51.986Z,9.32
2022-08-28T11:35:30.974Z,12.25
2022-08-28T11:37:58.647Z,7.55
2022-08-28T11:40:28.246Z,7.00
2022-08-28T11:43:19.134Z,10.70
2022-08-28T11:45:47.021Z,9.98
2022-08-28T11:48:26.057Z,7.15
2022-08-28T11:50:58.555Z,7.35
2022-08-28T11:53:34.283Z,8.25
2022-08-28T11:56:15.994Z,9.85
2022-08-28T11:59:10.278Z,9.35
2022-08-28T12:01:37.856Z,7.70
2022-08-28T12:04:14.803Z,5.28
2022-08-28T12:06:54.432Z,8.20
2022-08-28T12:09:41.766Z,12.87
2022-08-28T12:12:15.785Z,7.10
2022-08-28T12:14:42.533Z,11.38
2022-08-28T12:17:30.591Z,8.85
2022-08-28T12:20:58.649Z,7.55
2022-08-28T12:23:37.308Z,7.10
2022-08-28T12:26:11.375Z,9.13
2022-08-28T12:28:48.411Z,8.18
2022-08-28T12:32:02.684Z,6.95
2022-08-28T12:34:33.805Z,9.65
2022-08-28T12:37:03.229Z,8.60
2022-08-28T12:39:32.990Z,7.90
2022-08-28T12:42:01.919Z,8.07
2022-08-28T12:44:32.203Z,7.28
2022-08-28T12:46:59.900Z,9.35
2022-08-28T12:49:37.573Z,7.18
2022-08-28T12:52:16.725Z,8.75
2022-08-28T12:54:46.569Z,9.95
2022-08-28T12:57:16.717Z,5.93
2022-08-28T12:59:47.345Z,7.93
2022-08-28T13:02:26.941Z,6.68
2022-08-28T13:05:07.902Z,6.75
2022-08-28T13:07:36.977Z,6.88
2022-08-28T13:10:21.241Z,7.25
2022-08-28T13:12:58.800Z,7.15
2022-08-28T13:16:07.747Z,6.90
2022-08-28T13:18:50.392Z,7.15
2022-08-28T13:21:32.679Z,10.35
2022-08-28T13:24:23.364Z,7.47
2022-08-28T13:27:19.172Z,6.60
2022-08-28T13:30:00.885Z,12.35
2022-08-28T13:32:31.257Z,9.05
2022-08-28T13:35:38.748Z,7.30
2022-08-28T13:38:11.943Z,6.10
2022-08-28T13:40:57.471Z,7.20
2022-08-28T13:43:27.749Z,8.98
2022-08-28T13:45:54.662Z,9.98
2022-08-28T13:48:26.752Z,6.65
2022-08-28T13:51:10.285Z,5.55
2022-08-28T13:53:38.564Z,7.65
2022-08-28T13:56:05.603Z,7.90
2022-08-28T13:58:33.869Z,6.97
2022-08-28T14:01:01.121Z,7.38
2022-08-28T14:03:39.858Z,8.80
2022-08-28T14:06:13.418Z,10.32
2022-08-28T14:08:41.656Z,9.90
2022-08-28T14:11:12.617Z,9.95
2022-08-28T14:16:16.781Z,10.23
2022-08-28T14:18:43.795Z,11.10
2022-08-28T14:21:10.580Z,9.68
2022-08-28T14:23:37.423Z,8.85
2022-08-28T14:26:05.787Z,10.60
2022-08-28T14:28:35.325Z,11.57
2022-08-28T14:31:05.815Z,12.48
2022-08-28T14:33:36.857Z,14.23
2022-08-28T14:36:04.038Z,17.25
2022-08-28T14:38:31.466Z,14.70
2022-08-28T14:41:03.142Z,16.92
2022-08-28T14:43:30.236Z,16.55
2022-08-28T14:46:00.393Z,16.60
2022-08-28T14:48:27.497Z,19.80
2022-08-28T14:50:54.399Z,25.60
2022-08-28T14:53:24.284Z,24.58
2022-08-28T14:55:51.072Z,25.08
2022-08-28T14:58:20.020Z,26.42
2022-08-28T15:00:49.883Z,26.52
2022-08-28T15:03:19.408Z,29.67
2022-08-28T15:05:46.625Z,29.40
2022-08-28T15:08:16.874Z,30.58
2022-08-28T15:10:44.894Z,30.10
2022-08-28T15:13:12.998Z,27.08
2022-08-28T15:15:42.634Z,26.88
2022-08-28T15:18:11.217Z,28.55
2022-08-28T15:20:44.352Z,32.15
2022-08-28T15:23:13.833Z,27.95
2022-08-28T15:25:41.310Z,28.35
2022-08-28T15:28:08.573Z,30.42
2022-08-28T15:30:36.738Z,30.10
2022-08-28T15:33:03.740Z,24.95
2022-08-28T15:35:30.582Z,24.55
2022-08-28T15:37:57.467Z,28.30
2022-08-28T15:40:43.089Z,27.98
2022-08-28T15:43:09.963Z,32.85
2022-08-28T15:45:38.507Z,29.00
2022-08-28T15:48:07.422Z,27.27
2022-08-28T15:50:34.503Z,35.08
2022-08-28T15:53:01.825Z,32.10
2022-08-28T15:55:29.255Z,30.25
2022-08-28T15:57:56.333Z,30.92
2022-08-28T16:00:23.210Z,28.95
2022-08-28T16:02:50.028Z,33.97
2022-08-28T16:05:17.474Z,32.15
2022-08-28T16:07:44.811Z,32.42
2022-08-28T16:10:13.861Z,37.20
2022-08-28T16:12:41.090Z,32.28
2022-08-28T16:15:09.114Z,33.47
2022-08-28T16:17:36.174Z,31.40
2022-08-28T16:20:13.043Z,35.72
2022-08-28T16:22:41.284Z,37.13
2022-08-28T16:25:09.795Z,37.85
2022-08-28T16:27:36.690Z,30.55
2022-08-28T16:30:05.239Z,38.20
2022-08-28T16:32:32.228Z,38.25
2022-08-28T16:34:59.097Z,30.25
2022-08-28T16:37:37.731Z,32.88
2022-08-28T16:40:09.011Z,31.85
2022-08-28T16:42:36.339Z,36.67
2022-08-28T16:45:04.342Z,37.65
2022-08-28T16:47:33.216Z,40.10
2022-08-28T16:50:02.445Z,35.65
2022-08-28T16:52:29.316Z,33.08
2022-08-28T16:54:56.155Z,30.92
2022-08-28T16:57:23.792Z,32.38
2022-08-28T16:59:53.530Z,37.97
2022-08-28T17:02:26.656Z,35.38
2022-08-28T17:04:55.244Z,38.65
2022-08-28T17:07:22.116Z,44.17
2022-08-28T17:09:48.912Z,46.25
2022-08-28T17:12:16.750Z,45.35
2022-08-28T17:14:44.052Z,46.38
2022-08-28T17:17:11.461Z,39.83
2022-08-28T17:19:38.501Z,45.55
2022-08-28T17:22:24.069Z,42.42
2022-08-28T17:24:54.816Z,39.90
2022-08-28T17:27:22.397Z,37.95
2022-08-28T17:29:51.176Z,47.28
2022-08-28T17:32:18.174Z,38.75
2022-08-28T17:34:45.302Z,41.33
2022-08-28T17:37:12.206Z,39.10
2022-08-28T17:39:39.152Z,40.22
2022-08-28T17:42:06.258Z,39.35
2022-08-28T17:44:33.378Z,45.30
2022-08-28T17:47:01.069Z,45.95
2022-08-28T17:49:27.978Z,41.97
2022-08-28T17:51:54.797Z,42.42
2022-08-28T17:54:22.672Z,46.15
2022-08-28T17:56:50.164Z,43.53
2022-08-28T17:59:17.794Z,40.55
2022-08-28T18:01:46.517Z,42.58
2022-08-28T18:04:19.006Z,45.22
2022-08-28T18:06:52.769Z,40.80
2022-08-28T18:09:20.244Z,43.55
2022-08-28T18:11:47.561Z,39.85
2022-08-28T18:14:14.391Z,45.50
2022-08-28T18:16:41.330Z,37.28
2022-08-28T18:19:10.165Z,37.42
2022-08-28T18:21:38.554Z,38.10
2022-08-28T18:24:06.268Z,39.22
2022-08-28T18:26:33.249Z,38.08
2022-08-28T18:29:00.234Z,37.80
2022-08-28T18:31:27.239Z,37.78
2022-08-28T18:33:54.530Z,39.08
2022-08-28T18:36:23.328Z,34.28
2022-08-28T18:38:50.949Z,36.75
2022-08-28T18:41:20.101Z,40.80
2022-08-28T18:43:47.685Z,38.95
2022-08-28T18:46:14.735Z,40.58
2022-08-28T18:48:42.227Z,44.50
2022-08-28T18:51:10.996Z,40.45
2022-08-28T18:53:38.838Z,39.50
2022-08-28T18:56:09.215Z,40.22
2022-08-28T18:58:39.467Z,35.30
2022-08-28T19:01:08.314Z,41.55
2022-08-28T19:03:36.112Z,36.08
2022-08-28T19:06:03.003Z,35.85
2022-08-28T19:08:30.470Z,40.92
2022-08-28T19:10:57.482Z,36.40
2022-08-28T19:13:24.383Z,39.53
2022-08-28T19:15:53.081Z,32.30
2022-08-28T19:18:20.389Z,37.38
2022-08-28T19:20:48.203Z,32.85
2022-08-28T19:23:17.895Z,37.17
2022-08-28T19:25:45.789Z,39.03
2022-08-28T19:28:12.818Z,31.52
2022-08-28T19:30:40.037Z,37.20
2022-08-28T19:33:06.952Z,34.53
2022-08-28T19:35:34.014Z,36.08
2022-08-28T19:38:01.498Z,34.28
2022-08-28T19:40:29.197Z,33.00
2022-08-28T19:42:56.282Z,29.52
2022-08-28T19:45:23.374Z,34.30
2022-08-28T19:47:50.416Z,39.17
2022-08-28T19:50:17.509Z,41.33
2022-08-28T19:52:46.110Z,41.72
2022-08-28T19:55:19.364Z,39.25
2022-08-28T19:57:49.549Z,41.38
2022-08-28T20:00:23.345Z,37.17
2022-08-28T20:02:52.459Z,38.28
2022-08-28T20:05:20.875Z,38.30
2022-08-28T20:07:48.447Z,38.63
2022-08-28T20:10:16.445Z,34.53
2022-08-28T20:12:45.085Z,40.78
2022-08-28T20:15:16.240Z,45.25
2022-08-28T20:17:44.113Z,46.42
2022-08-28T20:20:21.466Z,43.00
2022-08-28T20:22:48.985Z,45.17
2022-08-28T20:25:21.516Z,38.28
2022-08-28T20:27:48.339Z,39.38
2022-08-28T20:30:15.186Z,38.22
2022-08-28T20:32:42.015Z,39.55
2022-08-28T20:35:11.951Z,38.67
2022-08-28T20:37:44.726Z,40.55
2022-08-28T20:40:18.014Z,39.58
2022-08-28T20:42:45.761Z,40.20
2022-08-28T20:45:15.213Z,37.22
2022-08-28T20:47:42.172Z,39.65
2022-08-28T20:50:09.874Z,40.30
2022-08-28T20:52:36.966Z,40.40
2022-08-28T20:55:05.098Z,45.13
2022-08-28T20:57:31.862Z,42.97
2022-08-28T21:00:02.267Z,40.90
2022-08-28T21:02:33.280Z,39.90
2022-08-28T21:05:00.405Z,43.97
2022-08-28T21:07:27.987Z,41.53
2022-08-28T21:10:05.478Z,41.83
2022-08-28T21:12:35.912Z,38.65
2022-08-28T21:15:03.738Z,39.38
2022-08-28T21:17:31.059Z,43.80
2022-08-28T21:20:04.581Z,42.50
2022-08-28T21:22:32.977Z,41.15
2022-08-28T21:25:02.500Z,37.00
2022-08-28T21:27:29.761Z,43.40
2022-08-28T21:30:00.463Z,40.90
2022-08-28T21:32:28.893Z,41.28
2022-08-28T21:34:56.038Z,43.88
2022-08-28T21:37:23.466Z,42.45
2022-08-28T21:39:50.814Z,38.80
2022-08-28T21:42:17.851Z,39.65
2022-08-28T21:44:46.083Z,39.63
2022-08-28T21:47:21.457Z,37.05
2022-08-28T21:49:50.178Z,42.55
2022-08-28T21:52:18.446Z,39.38
2022-08-28T21:54:45.350Z,37.88
2022-08-28T21:57:12.164Z,38.13
2022-08-28T21:59:39.078Z,39.03
2022-08-28T22:02:06.781Z,35.05
2022-08-28T22:04:33.869Z,38.03
2022-08-28T22:07:00.730Z,38.70
2022-08-28T22:09:27.564Z,38.30
2022-08-28T22:11:54.407Z,38.95
2022-08-28T22:14:21.186Z,40.30
2022-08-28T22:16:48.103Z,38.80
2022-08-28T22:19:14.980Z,42.75
2022-08-28T22:22:16.990Z,41.40
2022-08-28T22:24:43.763Z,43.30
2022-08-28T22:27:13.460Z,72.28
2022-08-28T22:29:40.628Z,92.22
2022-08-28T22:32:08.229Z,96.88
2022-08-28T22:34:38.978Z,99.07
2022-08-28T22:37:06.203Z,99.22
2022-08-28T22:39:33.078Z,83.47
2022-08-28T22:42:00.054Z,67.55
2022-08-28T22:44:26.806Z,52.28
2022-08-28T22:46:53.605Z,56.10
2022-08-28T22:49:20.489Z,63.38
2022-08-28T22:51:47.436Z,54.58
2022-08-28T22:54:14.213Z,46.13
2022-08-28T22:56:42.078Z,46.55
2022-08-28T22:59:09.691Z,49.42
2022-08-28T23:01:37.848Z,52.42
2022-08-28T23:04:05.248Z,43.17
2022-08-28T23:06:32.434Z,46.20
2022-08-28T23:08:59.215Z,48.90
2022-08-28T23:11:26.200Z,46.20
2022-08-28T23:13:52.964Z,41.63
2022-08-28T23:16:23.960Z,40.75
2022-08-28T23:19:07.433Z,42.95
2022-08-28T23:21:39.256Z,37.00
2022-08-28T23:24:16.032Z,41.90
2022-08-28T23:26:44.538Z,36.58
2022-08-28T23:29:12.377Z,36.35
2022-08-28T23:31:39.403Z,39.50
2022-08-28T23:34:06.861Z,33.95
2022-08-28T23:36:35.839Z,35.80
2022-08-28T23:39:04.899Z,34.45
2022-08-28T23:41:32.692Z,36.90
2022-08-28T23:43:59.702Z,32.03
2022-08-28T23:46:26.611Z,34.33
2022-08-28T23:48:53.398Z,32.47
2022-08-28T23:51:21.703Z,26.75
2022-08-28T23:53:49.069Z,29.55
2022-08-28T23:56:16.809Z,30.70
2022-08-28T23:58:44.454Z,31.10
